• Join FlightAware (Why Join?)
  • Login
  • US Flag 
01:02AM EDT


 

Airport Tracker/Info


-or-


 

Live Flight TrackerFlight Track Log ✈ UAL4888 ✈ 28-Dec-2013 ✈ KIAD - KORF

Flight Track Log - Related Links

Times and Time Zones

All times are in EST time to prevent confusion due to time zone crossing. See the UAL4888 flight status page for this flight to view local times or setup timezone preferences in your user account.

Time Position Orientation Groundspeed Altitude Reporting Facility
EST Latitude Longitude Course Direction KTS MPH feet Rate Location/Type
10:20PM 38.7078 -77.4194 127° Southeast 232 267 8,300  Level Washington Center
10:21PM 38.5147 -77.1880 211° Southwest  Level Estimated
10:21PM 38.6575 -77.4339 193° South 264 304 9,900  Level Washington Center
10:22PM 38.4281 -77.1340 218° Southwest  Level Estimated
10:22PM 38.5764 -77.4108 167° South 282 325 10,000  Level Washington Center
10:23PM 38.3415 -77.0801 218° Southwest  Level Estimated
10:23PM 38.4911 -77.4008 175° South 297 342 10,000  Level Washington Center
10:24PM 38.2548 -77.0264 127° Southeast  Level Estimated
10:24PM 38.4036 -77.3961 178° South 315 362 10,000  Level Washington Center
10:25PM 38.3161 -77.3858 175° South 315 362 9,900 -60 Descending Washington Center
10:26PM 38.2308 -77.3839 179° South 315 362 9,900  Level Washington Center
10:27PM 38.1433 -77.3739 175° South 310 357 9,900  Level Washington Center
10:28PM 38.0600 -77.3692 177° South 304 350 9,900 240 Level Washington Center
10:29PM 37.9850 -77.3569 173° South 304 350 10,400 900 Climbing Washington Center
10:30PM 37.9042 -77.3286 165° South 306 352 11,800 1,260 Climbing Washington Center
10:31PM 37.8406 -77.2536 137° Southeast 293 337 13,000  Climbing Washington Center
10:32PM 37.7728 -77.1758 138° Southeast 312 359 11,800 -960 Descending Washington Center
10:33PM 37.7050 -77.1011 139° Southeast 319 367 11,100 -720 Descending Washington Center
10:33PM 37.6906 -77.0850 139° Southeast 326 375 11,000 -120 Descending Washington Center
10:34PM 37.6369 -77.0236 138° Southeast 324 373 11,000  Level Washington Center
10:35PM 37.5692 -76.9464 138° Southeast 335 386 11,000  Level Washington Center
10:35PM 37.5711 -76.9439 46° Northeast 330 380 11,000  Level Washington Center
10:36PM 37.5094 -76.8642 134° Southeast 324 373 11,000  Level Washington Center
10:36PM 37.5033 -76.8536 126° Southeast 330 380 11,000 -420 Level Washington Center
10:37PM 37.4500 -76.7794 132° Southeast 322 371 10,600 -420 Descending Washington Center
10:37PM 37.4519 -76.7769 46° Northeast 325 374 10,600 -1,560 Level Washington Center
10:38PM 37.3922 -76.7003 134° Southeast 286 329 9,100 -1,440 Descending Washington Center
10:38PM 37.3964 -76.7003 360° North 315 362 9,200 -1,500 Climbing Washington Center
10:39PM 37.3367 -76.6289 136° Southeast 277 319 7,600 -1,620 Descending Washington Center
10:40PM 37.2850 -76.5578 132° Southeast 265 305 6,100 -1,380 Descending Washington Center
10:40PM 37.2911 -76.5631 326° Northwest 277 319 6,200 -1,380 Climbing Washington Center
10:41PM 37.2417 -76.4972 133° Southeast 270 311 4,700 -1,560 Descending Washington Center
10:42PM 37.1919 -76.4314 133° Southeast 264 304 3,200 -960 Descending Washington Center
10:43PM 37.1467 -76.3708 133° Southeast 245 282 3,000 -240 Descending Washington Center
10:43PM 37.1467 -76.3683 90° East 251 289 3,000  Level Washington Center
10:44PM 37.0969 -76.3053 135° Southeast 250 288 3,000 -300 Level Washington Center
10:45PM 37.0556 -76.2503 133° Southeast 204 235 2,500 -660 Descending Washington Center
10:46PM 37.0225 -76.2033 131° Southeast 181 208 1,700 -420 Descending Washington Center
10:47PM 36.9850 -76.1639 140° Southeast 165 190 1,700 -300 Level Washington Center
10:48PM 36.9475 -76.1558 170° South 121 139 1,100 -600 Descending Washington Center
10:49PM 36.9203 -76.1764 211° Southwest 106 122 500 -600 Descending Washington Center